createdAt,value
2024-02-17T00:01:15.197Z,99205.90
2024-02-17T00:06:20.328Z,99207.55
2024-02-17T00:11:23.933Z,99210.66
2024-02-17T00:16:27.251Z,99209.27
2024-02-17T00:21:30.508Z,99208.65
2024-02-17T00:26:34.038Z,99214.83
2024-02-17T00:31:37.601Z,99216.98
2024-02-17T00:36:41.025Z,99216.26
2024-02-17T00:41:45.667Z,99212.42
2024-02-17T00:46:48.909Z,99212.30
2024-02-17T00:51:52.037Z,99216.66
2024-02-17T00:56:55.237Z,99217.27
2024-02-17T01:01:59.591Z,99216.85
2024-02-17T01:07:02.747Z,99211.48
2024-02-17T01:12:06.530Z,99220.17
2024-02-17T01:17:09.726Z,99220.52
2024-02-17T01:22:12.885Z,99226.07
2024-02-17T01:27:16.204Z,99226.26
2024-02-17T01:32:19.408Z,99216.95
2024-02-17T01:37:22.437Z,99217.51
2024-02-17T01:42:25.560Z,99218.24
2024-02-17T01:47:29.041Z,99214.81
2024-02-17T01:52:32.990Z,99211.91
2024-02-17T01:57:37.011Z,99216.89
2024-02-17T02:02:43.021Z,99215.77
2024-02-17T02:07:46.319Z,99212.85
2024-02-17T02:12:49.651Z,99209.73
2024-02-17T02:17:52.876Z,99207.17
2024-02-17T02:22:56.167Z,99204.35
2024-02-17T02:27:59.342Z,99197.05
2024-02-17T02:33:02.784Z,99200.27
2024-02-17T02:38:06.668Z,99202.02
2024-02-17T02:43:10.040Z,99203.37
2024-02-17T02:48:13.313Z,99203.61
2024-02-17T02:53:16.744Z,99208.94
2024-02-17T02:58:20.643Z,99208.36
2024-02-17T03:03:24.036Z,99207.00
2024-02-17T03:08:27.428Z,99209.09
2024-02-17T03:13:30.695Z,99210.90
2024-02-17T03:18:34.345Z,99216.96
2024-02-17T03:23:37.605Z,99218.69
2024-02-17T03:28:40.879Z,99223.84
2024-02-17T03:34:59.933Z,99227.71
2024-02-17T03:40:23.161Z,99234.95
2024-02-17T03:45:26.433Z,99239.92
2024-02-17T03:50:29.846Z,99244.77
2024-02-17T03:55:33.282Z,99250.56
2024-02-17T04:00:36.544Z,99252.50
2024-02-17T04:05:39.786Z,99258.67
2024-02-17T04:10:44.148Z,99258.14
2024-02-17T04:15:47.697Z,99259.75
2024-02-17T04:20:50.979Z,99262.25
2024-02-17T04:25:54.547Z,99262.23
2024-02-17T04:30:58.471Z,99264.04
2024-02-17T04:36:02.023Z,99268.60
2024-02-17T04:41:05.355Z,99270.67
2024-02-17T04:46:08.558Z,99266.21
2024-02-17T04:51:11.745Z,99269.92
2024-02-17T04:56:15.515Z,99274.70
2024-02-17T05:01:18.907Z,99278.70
2024-02-17T05:06:23.510Z,99281.23
2024-02-17T05:11:26.928Z,99281.38
2024-02-17T05:16:30.108Z,99281.48
2024-02-17T05:21:33.377Z,99283.05
2024-02-17T05:26:37.540Z,99283.83
2024-02-17T05:31:40.808Z,99288.60
2024-02-17T05:36:44.039Z,99291.65
2024-02-17T05:41:47.175Z,99290.11
2024-02-17T05:46:50.283Z,99296.10
2024-02-17T05:51:53.637Z,99298.21
2024-02-17T05:56:56.839Z,99306.79
2024-02-17T06:02:00.055Z,99310.12
2024-02-17T06:07:04.080Z,99317.14
2024-02-17T06:12:07.750Z,99326.24
2024-02-17T06:17:11.827Z,99329.70
2024-02-17T06:22:15.032Z,99337.42
2024-02-17T06:27:18.340Z,99343.59
2024-02-17T06:32:21.500Z,99341.15
2024-02-17T06:37:25.150Z,99350.09
2024-02-17T06:42:28.382Z,99354.10
2024-02-17T06:47:31.909Z,99358.66
2024-02-17T06:52:35.066Z,99362.70
2024-02-17T06:57:38.905Z,99368.14
2024-02-17T07:02:42.150Z,99370.77
2024-02-17T07:07:45.431Z,99377.09
2024-02-17T07:12:48.647Z,99374.80
2024-02-17T07:17:51.893Z,99374.45
2024-02-17T07:22:55.256Z,99363.83
2024-02-17T07:27:59.193Z,99371.90
2024-02-17T07:33:02.878Z,99370.55
2024-02-17T07:38:06.362Z,99375.82
2024-02-17T07:43:09.472Z,99379.28
2024-02-17T07:48:12.903Z,99386.85
2024-02-17T07:53:16.260Z,99394.56
2024-02-17T07:58:19.583Z,99397.61
2024-02-17T08:03:22.806Z,99404.27
2024-02-17T08:08:26.357Z,99410.17
2024-02-17T08:13:29.692Z,99415.98
2024-02-17T08:18:33.472Z,99420.33
2024-02-17T08:23:36.877Z,99427.56
2024-02-17T08:28:40.141Z,99431.23
2024-02-17T08:33:44.368Z,99438.95
2024-02-17T08:38:47.916Z,99441.77
2024-02-17T08:43:51.244Z,99448.61
2024-02-17T08:48:54.649Z,99456.64
2024-02-17T08:53:58.525Z,99460.17
2024-02-17T08:59:02.034Z,99467.73
2024-02-17T09:04:05.471Z,99475.45
2024-02-17T09:09:09.104Z,99482.79
2024-02-17T09:14:12.873Z,99493.92
2024-02-17T09:19:16.229Z,99504.65
2024-02-17T09:24:26.602Z,99512.54
2024-02-17T09:29:29.926Z,99520.72
2024-02-17T09:34:33.600Z,99528.15
2024-02-17T09:39:40.853Z,99533.39
2024-02-17T09:44:44.514Z,99538.11
2024-02-17T09:49:48.726Z,99537.16
2024-02-17T09:54:52.198Z,99544.04
2024-02-17T09:59:55.632Z,99542.82
2024-02-17T10:04:59.468Z,99550.98
2024-02-17T10:10:03.152Z,99555.02
2024-02-17T10:15:06.751Z,99558.05
2024-02-17T10:20:12.208Z,99561.90
2024-02-17T10:25:15.860Z,99566.44
2024-02-17T10:30:21.960Z,99564.23
2024-02-17T10:35:26.243Z,99563.67
2024-02-17T10:40:32.189Z,99562.15
2024-02-17T10:45:35.931Z,99568.47
2024-02-17T10:50:43.038Z,99571.48
2024-02-17T10:55:50.501Z,99577.09
2024-02-17T11:00:53.863Z,99569.72
2024-02-17T11:06:00.368Z,99572.70
2024-02-17T11:11:22.453Z,99573.77
2024-02-17T11:16:25.725Z,99581.63
2024-02-17T11:21:37.854Z,99583.79
2024-02-17T11:26:44.991Z,99584.52
2024-02-17T11:31:49.365Z,99581.38
2024-02-17T11:36:53.595Z,99581.89
2024-02-17T11:41:58.510Z,99578.44
2024-02-17T11:47:01.752Z,99582.80
2024-02-17T11:52:05.228Z,99584.30
2024-02-17T11:57:09.433Z,99578.85
2024-02-17T12:02:12.569Z,99586.98
2024-02-17T12:07:15.777Z,99595.77
2024-02-17T12:12:18.972Z,99602.60
2024-02-17T12:17:25.000Z,99613.31
2024-02-17T12:22:28.569Z,99614.44
2024-02-17T12:27:32.795Z,99613.85
2024-02-17T12:32:39.117Z,99613.06
2024-02-17T12:37:50.524Z,99617.84
2024-02-17T12:42:54.892Z,99633.27
2024-02-17T12:47:58.372Z,99644.25
2024-02-17T12:53:16.906Z,99644.99
2024-02-17T12:58:20.854Z,99651.50
2024-02-17T13:03:26.054Z,99646.31
2024-02-17T13:08:29.411Z,99644.81
2024-02-17T13:13:34.382Z,99649.60
2024-02-17T13:18:37.718Z,99649.95
2024-02-17T13:23:41.044Z,99648.89
2024-02-17T13:28:44.286Z,99658.14
2024-02-17T13:33:48.502Z,99663.11
2024-02-17T13:38:52.338Z,99667.84
2024-02-17T13:43:55.542Z,99675.13
2024-02-17T13:48:58.847Z,99675.75
2024-02-17T13:54:04.042Z,99675.25
2024-02-17T13:59:07.252Z,99680.30
2024-02-17T14:04:10.709Z,99684.38
2024-02-17T14:09:14.072Z,99688.04
2024-02-17T14:14:19.642Z,99694.85
2024-02-17T14:19:23.402Z,99704.38
2024-02-17T14:24:26.713Z,99709.07
2024-02-17T14:29:31.915Z,99702.16
2024-02-17T14:34:35.345Z,99702.23
2024-02-17T14:39:39.204Z,99712.56
2024-02-17T14:44:42.727Z,99723.13
2024-02-17T14:49:46.012Z,99730.59
2024-02-17T14:54:49.209Z,99740.38
2024-02-17T14:59:52.567Z,99741.50
2024-02-17T15:04:55.768Z,99744.00
2024-02-17T15:09:59.034Z,99744.75
2024-02-17T15:15:03.122Z,99750.55
2024-02-17T15:20:08.575Z,99741.85
2024-02-17T15:25:11.811Z,99743.56
2024-02-17T15:30:15.403Z,99746.23
2024-02-17T15:35:18.784Z,99752.01
2024-02-17T15:40:22.581Z,99760.25
2024-02-17T15:45:25.764Z,99775.83
2024-02-17T15:50:30.236Z,99783.99
2024-02-17T15:55:33.502Z,99797.96
2024-02-17T16:00:36.801Z,99800.78
2024-02-17T16:05:40.183Z,99803.06
2024-02-17T16:10:43.461Z,99802.83
2024-02-17T16:15:49.967Z,99805.49
2024-02-17T16:20:56.206Z,99809.58
2024-02-17T16:25:59.467Z,99815.94
2024-02-17T16:31:04.320Z,99824.45
2024-02-17T16:36:08.523Z,99831.33
2024-02-17T16:41:11.713Z,99831.77
2024-02-17T16:46:14.871Z,99837.02
2024-02-17T16:51:18.622Z,99843.84
2024-02-17T16:56:21.831Z,99850.50
2024-02-17T17:01:25.254Z,99856.98
2024-02-17T17:06:28.535Z,99863.70
2024-02-17T17:11:32.562Z,99872.67
2024-02-17T17:16:35.996Z,99879.55
2024-02-17T17:21:39.295Z,99883.36
2024-02-17T17:26:50.004Z,99893.10
2024-02-17T17:31:54.780Z,99897.95
2024-02-17T17:36:58.165Z,99903.70
2024-02-17T17:42:01.636Z,99902.06
2024-02-17T17:47:05.845Z,99906.26
2024-02-17T17:52:09.851Z,99914.27
2024-02-17T17:57:13.414Z,99918.91
2024-02-17T18:02:16.609Z,99925.25
2024-02-17T18:07:21.521Z,99933.04
2024-02-17T18:12:24.999Z,99940.45
2024-02-17T18:17:29.756Z,99941.59
2024-02-17T18:22:33.143Z,99947.84
2024-02-17T18:27:36.655Z,99949.92
2024-02-17T18:32:39.901Z,99952.96
2024-02-17T18:37:43.596Z,99947.94
2024-02-17T18:42:46.963Z,99958.65
2024-02-17T18:47:50.441Z,99960.98
2024-02-17T18:52:53.947Z,99967.61
2024-02-17T18:57:57.136Z,99963.09
2024-02-17T19:03:00.415Z,99980.94
2024-02-17T19:08:04.617Z,99989.71
2024-02-17T19:13:07.973Z,99999.30
2024-02-17T19:18:11.156Z,99994.27
2024-02-17T19:23:18.531Z,99990.04
2024-02-17T19:28:22.448Z,99992.70
2024-02-17T19:33:28.088Z,99996.01
2024-02-17T19:38:31.591Z,100006.46
2024-02-17T19:43:35.340Z,100012.77
2024-02-17T19:48:38.858Z,100014.45
2024-02-17T19:53:42.200Z,100019.53
2024-02-17T19:58:45.352Z,100017.41
2024-02-17T20:03:48.620Z,100018.56
2024-02-17T20:08:55.478Z,100021.41
2024-02-17T20:13:58.718Z,100031.37
2024-02-17T20:19:02.095Z,100037.27
2024-02-17T20:24:06.559Z,100037.53
2024-02-17T20:29:09.911Z,100045.65
2024-02-17T20:34:13.273Z,100051.70
2024-02-17T20:39:16.404Z,100055.98
2024-02-17T20:44:22.508Z,100059.89
2024-02-17T20:49:25.647Z,100061.29
2024-02-17T20:54:28.979Z,100067.71
2024-02-17T20:59:32.192Z,100070.44
2024-02-17T21:04:35.608Z,100074.86
2024-02-17T21:09:38.951Z,100084.20
2024-02-17T21:14:42.790Z,100088.04
2024-02-17T21:19:46.810Z,100093.85
2024-02-17T21:24:50.171Z,100094.73
2024-02-17T21:29:53.324Z,100103.13
2024-02-17T21:34:56.628Z,100114.27
2024-02-17T21:40:00.074Z,100120.94
2024-02-17T21:45:03.906Z,100118.29
2024-02-17T21:50:07.407Z,100129.23
2024-02-17T21:55:10.809Z,100131.91
2024-02-17T22:00:14.436Z,100141.80
2024-02-17T22:05:17.646Z,100147.25
2024-02-17T22:10:20.969Z,100152.31
2024-02-17T22:15:24.156Z,100164.27
2024-02-17T22:20:27.410Z,100164.59
2024-02-17T22:25:31.256Z,100173.43
2024-02-17T22:30:34.633Z,100182.98
2024-02-17T22:35:38.010Z,100184.34
2024-02-17T22:40:41.256Z,100191.75
2024-02-17T22:45:45.250Z,100202.08
2024-02-17T22:50:48.485Z,100197.37
2024-02-17T22:55:52.710Z,100203.80
2024-02-17T23:00:56.057Z,100211.98
2024-02-17T23:05:59.606Z,100215.96
2024-02-17T23:11:03.987Z,100220.35
2024-02-17T23:16:07.766Z,100227.30
2024-02-17T23:21:11.271Z,100230.25
2024-02-17T23:26:14.421Z,100230.81
2024-02-17T23:31:17.693Z,100226.23
2024-02-17T23:36:21.831Z,100235.75
2024-02-17T23:41:25.169Z,100240.89
2024-02-17T23:46:28.536Z,100238.76
2024-02-17T23:51:32.270Z,100246.61
2024-02-17T23:56:37.344Z,100251.45
